METAR Data
IDs: Format: Raw Decoded Include TAF

Data at: 0638 UTC 11 Dec 2018

PABA 110552Z AUTO 05013KT 10SM CLR M28/M30 A2947 RMK AO2 SLP965 T12781300 11267 21289 58008 FZRANO TSNO
PABA 110452Z AUTO 05012KT 10SM CLR M28/M31 A2948 RMK AO2 SLP970 T12781306 FZRANO TSNO
PABA 110352Z AUTO 04009KT 10SM CLR M28/M31 A2949 RMK AO2 SLP971 T12831311 FZRANO TSNO
PABA 110252Z AUTO 10SM CLR M28/M31 A2950 RMK AO2 SLP974 T12781306 58007 FZRANO TSNO
PABA 110152Z AUTO 05011KT 10SM CLR M28/M30 A2950 RMK AO2 SLP976 T12781300 FZRANO TSNO
PABA 110052Z AUTO 04010KT 10SM CLR M27/M29 A2951 RMK AO2 SLP979 T12721294 FZRANO TSNO
PABA 102352Z AUTO 05011KT 10SM CLR M27/M29 A2952 RMK AO2 SLP981 60000 T12671289 11233 21267 50000 FZRANO TSNO
PABA 102252Z AUTO 05012KT 10SM CLR M26/M28 A2952 RMK AO2 SLP983 T12611283 FZRANO TSNO
PABA 102152Z AUTO 05011KT 10SM CLR M26/M28 A2952 RMK AO2 SLP983 T12611283 FZRANO TSNO
PABA 102052Z AUTO 06010KT 8SM CLR M25/M27 A2952 RMK AO2 SLP981 60000 T12501272 53001 FZRANO TSNO
PABA 101952Z AUTO 06010KT 9SM BKN065 M24/M27 A2952 RMK AO2 SNE41 SLP980 P0000 T12391267 FZRANO TSNO
PABA 101852Z AUTO 06008KT 7SM -SN OVC060 M23/M26 A2951 RMK AO2 SLP980 P0000 T12331261 FZRANO TSNO
PABA 101752Z AUTO 06009KT 6SM -SN OVC060 M23/M26 A2951 RMK AO2 SLP980 P0000 60000 T12331261 11228 21244 50002 FZRANO TSNO
PABA 101652Z AUTO 06010KT 7SM -SN OVC065 M23/M26 A2952 RMK AO2 SLP981 P0000 T12331261 FZRANO TSNO
PABA 101452Z AUTO 04007KT 9SM OVC070 M24/M27 A2951 RMK AO2 SNB32E48 SLP978 P0000 60000 T12441267 53005 FZRANO TSNO
PABA 101352Z AUTO 04007KT 10SM OVC040 M24/M26 A2950 RMK AO2 SNE39 SLP974 P0000 T12391261 FZRANO TSNO
PABA 101252Z AUTO 03006KT 7SM -SN OVC042 M23/M26 A2949 RMK AO2 SLP973 P0000 T12331256 FZRANO TSNO
PABA 101152Z AUTO 03007KT 9SM -SN OVC040 M23/M25 A2949 RMK AO2 SLP973 P0000 60000 T12281250 11222 21228 51012 FZRANO TSNO
PABA 101052Z AUTO 04007KT 9SM -SN OVC040 M23/M25 A2948 RMK AO2 SLP970 P0000 T12281250 FZRANO TSNO
PABA 100852Z AUTO 02005KT 10SM OVC048 M23/M25 A2946 RMK AO2 SNB09E19 SLP961 P0000 60000 T12281250 412001228 53008 FZRANO TSNO
PABA 100752Z AUTO 03006KT 9SM OVC050 M23/M25 A2944 RMK AO2 SNE49 SLP956 P0000 T12281250 FZRANO TSNO
PABA 100656Z AUTO 03008KT 8SM -SN SCT026 OVC050 M22/M25 A2944 RMK AO2 P0000 FZRANO TSNO
PABA 100652Z AUTO 03008KT 8SM -SN BKN026 BKN034 OVC050 M22/M25 A2943 RMK AO2 SLP953 P0000 T12221250 FZRANO TSNO
PABA 100648Z AUTO 03009KT 8SM -SN BKN026 BKN034 OVC050 M22/M25 A2943 RMK AO2 P0000 FZRANO TSNO
PABA 100552Z AUTO 03010KT 9SM -SN OVC050 M22/M24 A2943 RMK AO2 SLP953 P0000 60000 T12221244 11217 21222 53011 FZRANO TSNO
PABA 100515Z AUTO 03009KT 6SM -SN FEW004 BKN055 OVC085 M22/M25 A2942 RMK AO2 P0000 FZRANO TSNO
PABA 100506Z AUTO 03009KT 4SM -SN FEW004 BKN022 OVC085 M22/M25 A2943 RMK AO2 P0000 FZRANO TSNO
PABA 100503Z AUTO 03010KT 3SM -SN FEW004 BKN012 OVC085 M22/M25 A2943 RMK AO2 P0000 FZRANO TSNO
PABA 100455Z AUTO 03010KT 2SM -SN SCT004 BKN012 OVC021 M22/M25 A2942 RMK AO2 P0000 FZRANO TSNO
PABA 100452Z AUTO 03011KT 1 3/4SM -SN BR SCT004 OVC012 M22/M24 A2942 RMK AO2 SLP949 P0000 T12221244 FZRANO TSNO
PABA 100447Z AUTO 03010KT 1 1/2SM -SN BR FEW004 OVC012 M22/M24 A2942 RMK AO2 P0000 FZRANO TSNO
PABA 100432Z AUTO 03010KT 1 1/4SM -SN BR BKN010 BKN015 OVC025 M22/M24 A2942 RMK AO2 P0000 FZRANO TSNO
PABA 100415Z AUTO 03010KT 1 3/4SM -SN BR FEW020 OVC027 M22/M24 A2942 RMK AO2 P0000 FZRANO TSNO
PABA 100403Z AUTO 04011KT 2 1/2SM -SN BR FEW020 BKN028 OVC033 M22/M24 A2941 RMK AO2 P0000 FZRANO TSNO
PABA 100352Z AUTO 04011KT 2SM -SN SCT020 OVC031 M22/M24 A2941 RMK AO2 SLP943 P0000 T12171244 FZRANO TSNO
PABA 100340Z AUTO 04011KT 2SM -SN OVC020 M22/M24 A2941 RMK AO2 P0000 FZRANO TSNO
PABA 100322Z AUTO 05011KT 1 3/4SM -SN BKN020 OVC025 M22/M24 A2940 RMK AO2 P0000 FZRANO TSNO
PABA 100313Z AUTO 04010KT 2 1/2SM -SN BKN022 OVC029 M22/M24 A2940 RMK AO2 P0000 FZRANO TSNO
PABA 100303Z AUTO 05011KT 3SM -SN BKN023 OVC029 M22/M24 A2940 RMK AO2 P0000 FZRANO TSNO
PABA 100259Z AUTO 05012KT 2 1/2SM -SN SCT020 OVC029 M22/M24 A2940 RMK AO2 P0000 FZRANO TSNO
PABA 100252Z AUTO 05011KT 2SM -SN SCT020 OVC031 M22/M24 A2940 RMK AO2 SLP941 P0000 60000 T12171244 53000 FZRANO TSNO
PABA 100248Z AUTO 05012KT 2SM -SN BKN020 OVC029 M22/M24 A2940 RMK AO2 P0000 FZRANO TSNO
PABA 100222Z AUTO 05013KT 1 3/4SM -SN OVC018 M22/M24 A2939 RMK AO2 P0000 FZRANO TSNO
PABA 100208Z AUTO 06012KT 2 1/2SM -SN BKN018 BKN028 OVC038 M22/M24 A2938 RMK AO2 P0000 FZRANO TSNO
PABA 100159Z AUTO 06012KT 4SM -SN SCT022 BKN028 OVC046 M22/M24 A2938 RMK AO2 P0000 FZRANO TSNO
PABA 100152Z AUTO 06014KT 5SM -SN FEW029 BKN037 OVC050 M22/M24 A2938 RMK AO2 SLP936 P0000 T12171244 FZRANO TSNO
PABA 100052Z AUTO 06015KT 3SM -SN FEW028 OVC043 M22/M24 A2939 RMK AO2 SLP936 P0000 T12171244 FZRANO TSNO
PABA 092352Z AUTO 05015KT 4SM -SN OVC045 M22/M24 A2940 RMK AO2 SLP941 P0000 60000 T12171244 11217 21222 53001 FZRANO TSNO
PABA 092255Z AUTO 06015KT 3SM -SN BR OVC041 M22/M24 A2939 RMK AO2 P0000 FZRANO TSNO
PABA 092252Z AUTO 06015KT 2 1/2SM -SN BR OVC041 M22/M24 A2939 RMK AO2 SLP939 P0000 T12171239 FZRANO TSNO
PABA 092234Z AUTO 06016KT 2SM -SN OVC041 M22/M24 A2939 RMK AO2 P0000 FZRANO TSNO
PABA 092224Z AUTO 05016KT 1 3/4SM -SN OVC041 M22/M24 A2939 RMK AO2 P0000 FZRANO TSNO
PABA 092216Z AUTO 06016KT 2SM -SN OVC041 M22/M24 A2940 RMK AO2 P0000 FZRANO TSNO
PABA 092155Z AUTO 06015KT 3SM -SN SCT025 OVC041 M22/M24 A2940 RMK AO2 P0000 FZRANO TSNO
PABA 092152Z AUTO 05015KT 2 1/2SM -SN SCT025 OVC041 M22/M24 A2940 RMK AO2 SLP942 P0000 T12171244 FZRANO TSNO
PABA 092147Z AUTO 05016KT 2SM -SN SCT025 OVC041 M22/M24 A2940 RMK AO2 VIS 1 1/4V2 1/2 P0000 FZRANO TSNO
PABA 092142Z AUTO 05015KT 2 1/2SM -SN BKN025 OVC041 M22/M24 A2940 RMK AO2 VIS 1 1/4V5 P0000 FZRANO TSNO
PABA 092052Z AUTO 05013KT 6SM -SN BR OVC025 M22/M24 A2940 RMK AO2 SLP940 P0000 60000 T12221244 56001 FZRANO TSNO
PABA 092015Z AUTO 05014KT 6SM -SN BR BKN023 OVC045 M22/M24 A2939 RMK AO2 P0000 FZRANO TSNO
PABA 091952Z AUTO 05014KT 7SM -SN OVC045 M22/M24 A2940 RMK AO2 SLP941 P0000 T12221244 FZRANO TSNO
PABA 091852Z AUTO 05015KT 6SM -SN BR FEW022 BKN043 OVC095 M22/M24 A2939 RMK AO2 SLP939 P0000 T12171239 FZRANO TSNO